Time;durP1;ratioP1;P1;durP2;ratioP2;P2;SDS_P1;SDS_P2;PMS_P1;PMS_P2;Temp;Humidity;BMP_temperature;BMP_pressure;BME280_temperature;BME280_humidity;BME280_pressure;Samples;Min_cycle;Max_cycle;Signal;HPM_P1;HPM_P2
2023/07/14 00:01:31;;;;;;;6.63;6.03;;;;;;;;;;5045889;28;20318;-78
2023/07/14 00:04:00;;;;;;;6.78;6.13;;;;;;;;;;5029378;28;20699;-78
2023/07/14 00:06:25;;;;;;;8.70;6.20;;;;;;;;;;5043200;28;20231;-78
2023/07/14 00:08:51;;;;;;;6.57;5.97;;;;;;;;;;5043889;28;20239;-78
2023/07/14 00:11:23;;;;;;;7.22;6.57;;;;;;;;;;4992041;28;20224;-78
2023/07/14 00:13:55;;;;;;;6.80;6.20;;;;;;;;;;5015353;28;20671;-77
2023/07/14 00:16:23;;;;;;;7.63;6.40;;;;;;;;;;5024552;28;20231;-78
2023/07/14 00:18:49;;;;;;;7.03;6.50;;;;;;;;;;5006138;28;20598;-78
2023/07/14 00:21:21;;;;;;;6.95;6.35;;;;;;;;;;5010307;28;20254;-78
2023/07/14 00:23:46;;;;;;;6.78;6.18;;;;;;;;;;5008325;28;20227;-78
2023/07/14 00:26:19;;;;;;;6.82;6.25;;;;;;;;;;5006362;28;20314;-78
2023/07/14 00:28:50;;;;;;;9.23;6.68;;;;;;;;;;5007809;28;20286;-78
2023/07/14 00:31:20;;;;;;;6.63;6.10;;;;;;;;;;5015511;28;20238;-78
2023/07/14 00:33:51;;;;;;;6.60;5.97;;;;;;;;;;5017032;28;20223;-78
2023/07/14 00:36:21;;;;;;;7.28;6.75;;;;;;;;;;4996806;28;20232;-77
2023/07/14 00:38:47;;;;;;;8.35;7.47;;;;;;;;;;5009311;28;20232;-77
2023/07/14 00:41:21;;;;;;;6.65;6.15;;;;;;;;;;5027066;28;20216;-78
2023/07/14 00:43:49;;;;;;;6.85;6.25;;;;;;;;;;5026181;28;20230;-78
2023/07/14 00:46:23;;;;;;;7.40;6.90;;;;;;;;;;5041503;28;20227;-78
2023/07/14 00:48:49;;;;;;;7.85;6.72;;;;;;;;;;5042235;28;20231;-77
2023/07/14 00:51:14;;;;;;;8.02;7.22;;;;;;;;;;5040171;28;20218;-78
2023/07/14 00:53:45;;;;;;;7.60;6.68;;;;;;;;;;5033710;28;20225;-78
2023/07/14 00:56:10;;;;;;;8.50;7.80;;;;;;;;;;5031698;28;20687;-78
2023/07/14 00:58:41;;;;;;;9.60;7.90;;;;;;;;;;5015523;28;20314;-78
2023/07/14 01:01:10;;;;;;;9.23;8.13;;;;;;;;;;5016121;28;20594;-78
2023/07/14 01:03:41;;;;;;;8.67;7.97;;;;;;;;;;5027180;28;20227;-78
2023/07/14 01:06:19;;;;;;;9.83;9.03;;;;;;;;;;5040455;28;20219;-78
2023/07/14 01:08:53;;;;;;;9.93;8.95;;;;;;;;;;5019639;28;20223;-78
2023/07/14 01:11:22;;;;;;;11.03;10.10;;;;;;;;;;5039286;28;20242;-78
2023/07/14 01:13:52;;;;;;;10.17;9.37;;;;;;;;;;5034785;28;20234;-78
2023/07/14 01:16:18;;;;;;;10.80;9.80;;;;;;;;;;4989017;28;20608;-76
2023/07/14 01:18:46;;;;;;;9.70;8.75;;;;;;;;;;5022163;28;20216;-77
2023/07/14 01:21:14;;;;;;;9.73;8.93;;;;;;;;;;5024622;28;20212;-78
2023/07/14 01:23:58;;;;;;;9.70;8.80;;;;;;;;;;5040945;28;20232;-77
2023/07/14 01:26:56;;;;;;;10.05;9.15;;;;;;;;;;5036843;28;20219;-78
2023/07/14 01:29:24;;;;;;;10.77;8.77;;;;;;;;;;5032539;28;20235;-77
2023/07/14 01:31:50;;;;;;;9.97;9.17;;;;;;;;;;5027976;28;20673;-79
2023/07/14 01:34:19;;;;;;;10.35;9.25;;;;;;;;;;4996307;28;20234;-78
2023/07/14 01:36:48;;;;;;;10.70;9.80;;;;;;;;;;5041356;28;20227;-78
2023/07/14 01:39:14;;;;;;;11.57;10.48;;;;;;;;;;5045888;28;20223;-78
2023/07/14 01:41:42;;;;;;;10.05;9.25;;;;;;;;;;5016813;28;20223;-78
2023/07/14 01:44:15;;;;;;;9.38;8.57;;;;;;;;;;5025928;28;20226;-78
2023/07/14 01:46:43;;;;;;;9.95;8.93;;;;;;;;;;5031242;28;20225;-79
2023/07/14 01:49:13;;;;;;;9.10;8.27;;;;;;;;;;5014500;28;20235;-78
2023/07/14 01:51:43;;;;;;;10.52;9.43;;;;;;;;;;5031802;28;20226;-78
2023/07/14 01:54:38;;;;;;;7.28;6.68;;;;;;;;;;5012059;28;20262;-78
2023/07/14 01:57:09;;;;;;;6.73;6.20;;;;;;;;;;5006073;28;20696;-78
2023/07/14 01:59:37;;;;;;;6.90;6.30;;;;;;;;;;5016497;28;20896;-78
2023/07/14 02:02:06;;;;;;;5.80;5.30;;;;;;;;;;4991631;28;20228;-77
2023/07/14 02:04:33;;;;;;;5.87;5.47;;;;;;;;;;4993268;28;20334;-78
2023/07/14 02:07:01;;;;;;;6.20;5.67;;;;;;;;;;5013166;28;20331;-78
2023/07/14 02:09:28;;;;;;;7.03;6.43;;;;;;;;;;5014576;28;20227;-78
2023/07/14 02:11:59;;;;;;;6.90;6.30;;;;;;;;;;5030498;28;20216;-77
2023/07/14 02:14:30;;;;;;;9.43;7.43;;;;;;;;;;5021925;28;20223;-77
2023/07/14 02:17:02;;;;;;;7.37;6.70;;;;;;;;;;5027948;28;20235;-78
2023/07/14 02:19:27;;;;;;;8.23;7.47;;;;;;;;;;5000927;28;20219;-78
2023/07/14 02:21:55;;;;;;;7.77;7.10;;;;;;;;;;5027620;28;20587;-77
2023/07/14 02:24:24;;;;;;;8.33;7.73;;;;;;;;;;5012260;28;20244;-78
2023/07/14 02:26:55;;;;;;;11.33;8.43;;;;;;;;;;4988918;28;20307;-77
2023/07/14 02:29:25;;;;;;;7.70;7.10;;;;;;;;;;5007211;28;20243;-77
2023/07/14 02:32:06;;;;;;;7.90;7.30;;;;;;;;;;5020275;28;20232;-79
2023/07/14 02:34:40;;;;;;;8.77;6.37;;;;;;;;;;5031867;28;20362;-79
2023/07/14 02:37:44;;;;;;;6.27;5.87;;;;;;;;;;4992476;28;20224;-80
2023/07/14 02:40:12;;;;;;;7.80;6.37;;;;;;;;;;5028595;28;20734;-79
2023/07/14 02:42:38;;;;;;;7.37;6.43;;;;;;;;;;5040483;28;20222;-78
2023/07/14 02:45:04;;;;;;;7.40;6.80;;;;;;;;;;5018486;28;20218;-78
2023/07/14 02:47:35;;;;;;;7.37;6.67;;;;;;;;;;5063202;28;20238;-78
2023/07/14 02:50:04;;;;;;;7.20;6.70;;;;;;;;;;5022702;28;20242;-78
2023/07/14 02:52:32;;;;;;;8.03;7.33;;;;;;;;;;5023082;28;20219;-79
2023/07/14 02:54:58;;;;;;;7.80;7.20;;;;;;;;;;5029304;28;20215;-78
2023/07/14 02:57:23;;;;;;;7.80;7.20;;;;;;;;;;5057049;28;20219;-78
2023/07/14 02:59:49;;;;;;;11.43;7.63;;;;;;;;;;5045900;28;20234;-79
2023/07/14 03:02:16;;;;;;;7.87;7.23;;;;;;;;;;5027590;28;20277;-79
2023/07/14 03:04:44;;;;;;;9.03;8.03;;;;;;;;;;5015464;28;20215;-79
2023/07/14 03:07:09;;;;;;;8.27;7.67;;;;;;;;;;5035495;28;20228;-78
2023/07/14 03:09:35;;;;;;;8.40;7.80;;;;;;;;;;5021178;28;20294;-79
2023/07/14 03:12:02;;;;;;;9.57;8.77;;;;;;;;;;5037306;28;20281;-78
2023/07/14 03:14:28;;;;;;;8.17;7.47;;;;;;;;;;5036844;28;20914;-79
2023/07/14 03:16:54;;;;;;;9.60;8.70;;;;;;;;;;5018408;28;20231;-78
2023/07/14 03:19:22;;;;;;;9.57;8.77;;;;;;;;;;5018469;28;20282;-78
2023/07/14 03:21:48;;;;;;;11.10;10.03;;;;;;;;;;5013160;28;20223;-79
2023/07/14 03:24:13;;;;;;;11.00;10.00;;;;;;;;;;5008374;28;20220;-79
2023/07/14 03:26:43;;;;;;;13.07;11.70;;;;;;;;;;5032286;28;20229;-78
2023/07/14 03:29:11;;;;;;;11.03;10.03;;;;;;;;;;5056894;28;20219;-79
2023/07/14 03:31:37;;;;;;;7.20;6.60;;;;;;;;;;5022398;28;20216;-77
2023/07/14 03:34:02;;;;;;;6.97;6.47;;;;;;;;;;5042270;28;20230;-77
2023/07/14 03:36:28;;;;;;;6.80;6.20;;;;;;;;;;5054736;28;20250;-78
2023/07/14 03:39:24;;;;;;;7.00;5.67;;;;;;;;;;5018898;28;20224;-77
2023/07/14 03:41:51;;;;;;;6.40;5.90;;;;;;;;;;5032910;28;20224;-77
2023/07/14 03:44:16;;;;;;;6.40;5.80;;;;;;;;;;5004391;28;20305;-77
2023/07/14 03:46:42;;;;;;;6.70;6.20;;;;;;;;;;5031837;28;20594;-78
2023/07/14 03:49:10;;;;;;;7.47;6.30;;;;;;;;;;5010767;28;20688;-78
2023/07/14 03:51:35;;;;;;;7.53;6.50;;;;;;;;;;5028177;28;20220;-76
2023/07/14 03:54:03;;;;;;;7.10;6.50;;;;;;;;;;5028959;28;20260;-78
2023/07/14 03:56:28;;;;;;;7.50;6.83;;;;;;;;;;5012528;28;20744;-78
2023/07/14 03:58:54;;;;;;;8.10;7.43;;;;;;;;;;5012264;28;20246;-78
2023/07/14 04:05:08;;;;;;;8.30;7.50;;;;;;;;;;5041554;28;20702;-78
2023/07/14 04:07:39;;;;;;;7.97;7.37;;;;;;;;;;5029690;28;20227;-78
2023/07/14 04:10:08;;;;;;;8.10;7.33;;;;;;;;;;5020709;28;20219;-77
2023/07/14 04:12:35;;;;;;;6.30;5.80;;;;;;;;;;5027223;28;20607;-78
2023/07/14 04:15:00;;;;;;;7.93;7.23;;;;;;;;;;5006866;28;20231;-77
2023/07/14 04:17:28;;;;;;;8.33;7.53;;;;;;;;;;5004251;28;20235;-77
2023/07/14 04:19:54;;;;;;;8.60;7.80;;;;;;;;;;5024078;28;20233;-77
2023/07/14 04:22:19;;;;;;;8.97;8.20;;;;;;;;;;5041374;28;20700;-78
2023/07/14 04:24:47;;;;;;;9.07;8.20;;;;;;;;;;5032313;28;20659;-78
2023/07/14 04:27:15;;;;;;;10.33;7.50;;;;;;;;;;4999620;28;20222;-78
2023/07/14 04:29:41;;;;;;;11.37;7.40;;;;;;;;;;5024594;28;20220;-77
2023/07/14 04:32:07;;;;;;;8.77;7.87;;;;;;;;;;4974271;28;20220;-78
2023/07/14 04:34:32;;;;;;;9.07;8.27;;;;;;;;;;5030691;28;20216;-80
2023/07/14 04:37:00;;;;;;;8.87;8.07;;;;;;;;;;5008644;28;20715;-79
2023/07/14 04:39:28;;;;;;;9.35;8.55;;;;;;;;;;5023190;28;20220;-79
2023/07/14 04:41:55;;;;;;;8.85;7.95;;;;;;;;;;5031436;28;20207;-79
2023/07/14 04:44:23;;;;;;;10.05;9.25;;;;;;;;;;5042143;28;20224;-78
2023/07/14 04:46:51;;;;;;;10.50;9.50;;;;;;;;;;5010273;28;20643;-78
2023/07/14 04:49:17;;;;;;;11.68;10.68;;;;;;;;;;5038451;28;20225;-78
2023/07/14 04:51:44;;;;;;;17.23;15.63;;;;;;;;;;5010553;28;20223;-77
2023/07/14 04:54:11;;;;;;;16.35;14.68;;;;;;;;;;5023245;28;20228;-78
2023/07/14 04:56:40;;;;;;;17.03;15.53;;;;;;;;;;5012712;28;20234;-78
2023/07/14 04:59:13;;;;;;;16.20;14.52;;;;;;;;;;5024612;28;21029;-79
2023/07/14 05:01:39;;;;;;;16.27;14.77;;;;;;;;;;5032308;28;20226;-78
2023/07/14 05:04:04;;;;;;;17.92;16.42;;;;;;;;;;5005872;28;20228;-77
2023/07/14 05:06:31;;;;;;;17.42;15.93;;;;;;;;;;5015332;28;20299;-79
2023/07/14 05:08:59;;;;;;;17.75;16.13;;;;;;;;;;5008740;28;20207;-78
2023/07/14 05:11:25;;;;;;;17.70;16.00;;;;;;;;;;5029615;28;20750;-79
2023/07/14 05:13:53;;;;;;;20.13;18.25;;;;;;;;;;5011185;28;20219;-78
2023/07/14 05:16:19;;;;;;;20.20;18.10;;;;;;;;;;5014344;28;20298;-76
2023/07/14 05:18:47;;;;;;;20.42;18.48;;;;;;;;;;5039736;28;20307;-78
2023/07/14 05:21:15;;;;;;;21.40;19.33;;;;;;;;;;5030243;28;20227;-77
2023/07/14 05:23:40;;;;;;;21.25;19.00;;;;;;;;;;5022308;28;20903;-77
2023/07/14 05:26:06;;;;;;;21.27;19.00;;;;;;;;;;5029448;28;20220;-78
2023/07/14 05:28:36;;;;;;;20.00;18.20;;;;;;;;;;5032941;28;20223;-77
2023/07/14 05:31:06;;;;;;;20.58;18.60;;;;;;;;;;5027170;28;20211;-79
2023/07/14 05:33:32;;;;;;;20.45;18.55;;;;;;;;;;5016001;28;20255;-78
2023/07/14 05:35:57;;;;;;;22.17;20.25;;;;;;;;;;5040402;28;20223;-78
2023/07/14 05:38:23;;;;;;;22.23;19.92;;;;;;;;;;5016255;28;20241;-78
2023/07/14 05:40:53;;;;;;;23.13;21.02;;;;;;;;;;5032782;28;20699;-79
2023/07/14 05:43:19;;;;;;;22.73;20.17;;;;;;;;;;5029949;28;20224;-77
2023/07/14 05:45:48;;;;;;;23.27;21.10;;;;;;;;;;5027196;28;20223;-77
2023/07/14 05:48:17;;;;;;;22.80;20.42;;;;;;;;;;4988819;28;20236;-79
2023/07/14 05:50:44;;;;;;;22.70;20.58;;;;;;;;;;5032318;28;20250;-79
2023/07/14 05:53:10;;;;;;;25.30;22.70;;;;;;;;;;5033744;28;20212;-78
2023/07/14 05:55:40;;;;;;;24.52;22.23;;;;;;;;;;5004688;28;20254;-79
2023/07/14 05:58:08;;;;;;;23.55;21.13;;;;;;;;;;5023428;28;20219;-76
2023/07/14 06:00:40;;;;;;;24.30;22.00;;;;;;;;;;4988931;28;20719;-77
2023/07/14 06:03:06;;;;;;;23.42;21.02;;;;;;;;;;5029898;28;20223;-78
2023/07/14 06:05:33;;;;;;;24.02;21.50;;;;;;;;;;5034295;28;20216;-76
2023/07/14 06:07:58;;;;;;;23.38;20.77;;;;;;;;;;5043413;28;20246;-78
2023/07/14 06:10:24;;;;;;;22.92;20.00;;;;;;;;;;5031714;28;20220;-76
2023/07/14 06:12:51;;;;;;;22.42;20.08;;;;;;;;;;5047705;28;20215;-77
2023/07/14 06:15:19;;;;;;;21.17;19.05;;;;;;;;;;5052083;28;20250;-77
2023/07/14 06:17:45;;;;;;;20.63;18.58;;;;;;;;;;5035544;28;20223;-77
2023/07/14 06:20:11;;;;;;;20.60;18.58;;;;;;;;;;5006008;28;20234;-76
2023/07/14 06:22:38;;;;;;;18.70;16.90;;;;;;;;;;5037902;28;20299;-77
2023/07/14 06:25:08;;;;;;;18.00;16.30;;;;;;;;;;5028739;28;20315;-77
2023/07/14 06:27:34;;;;;;;19.13;17.13;;;;;;;;;;5029461;28;20247;-77
2023/07/14 06:30:00;;;;;;;17.40;15.70;;;;;;;;;;5024285;28;20849;-78
2023/07/14 06:32:25;;;;;;;18.52;16.88;;;;;;;;;;5005395;28;20254;-77
2023/07/14 06:34:51;;;;;;;18.70;16.77;;;;;;;;;;5026207;28;20215;-78
2023/07/14 06:37:17;;;;;;;19.13;16.40;;;;;;;;;;5042293;28;20228;-78
2023/07/14 06:39:45;;;;;;;18.08;16.10;;;;;;;;;;5032951;28;20235;-78
2023/07/14 06:42:13;;;;;;;17.35;15.40;;;;;;;;;;5030076;28;20315;-77
2023/07/14 06:44:41;;;;;;;14.85;13.52;;;;;;;;;;5014919;28;20215;-77
2023/07/14 06:47:06;;;;;;;16.90;14.25;;;;;;;;;;5024626;28;20211;-76
2023/07/14 06:49:34;;;;;;;15.88;14.38;;;;;;;;;;5003443;28;20642;-78
2023/07/14 06:52:03;;;;;;;16.67;14.98;;;;;;;;;;5023458;28;20981;-78
2023/07/14 06:54:29;;;;;;;15.68;14.02;;;;;;;;;;4988534;28;20216;-78
2023/07/14 06:56:57;;;;;;;16.45;14.70;;;;;;;;;;5025490;28;20228;-77
2023/07/14 06:59:27;;;;;;;15.25;13.88;;;;;;;;;;4998207;28;20228;-77
2023/07/14 07:01:52;;;;;;;18.45;14.32;;;;;;;;;;5031676;28;20682;-77
2023/07/14 07:04:21;;;;;;;15.23;13.65;;;;;;;;;;5013188;28;20208;-77
2023/07/14 07:06:46;;;;;;;15.82;14.27;;;;;;;;;;5003491;28;20223;-77
2023/07/14 07:09:12;;;;;;;15.27;13.50;;;;;;;;;;5006055;28;20230;-76
2023/07/14 07:11:37;;;;;;;14.13;12.73;;;;;;;;;;5024614;28;20227;-76
2023/07/14 07:14:05;;;;;;;14.32;12.93;;;;;;;;;;5023327;28;20581;-76
2023/07/14 07:16:36;;;;;;;14.75;12.38;;;;;;;;;;5018512;28;20234;-76
2023/07/14 07:19:02;;;;;;;14.80;12.90;;;;;;;;;;5037279;28;20309;-77
2023/07/14 07:21:30;;;;;;;13.85;12.35;;;;;;;;;;5029497;28;20227;-77
2023/07/14 07:23:56;;;;;;;13.00;11.25;;;;;;;;;;5030437;28;20288;-78
2023/07/14 07:26:21;;;;;;;14.00;12.32;;;;;;;;;;5025301;28;20226;-77
2023/07/14 07:28:49;;;;;;;12.07;10.93;;;;;;;;;;5023968;28;20223;-77
2023/07/14 07:31:15;;;;;;;14.05;11.35;;;;;;;;;;5045493;28;20223;-76
2023/07/14 07:33:43;;;;;;;13.15;11.07;;;;;;;;;;5038028;28;20234;-78
2023/07/14 07:36:15;;;;;;;11.95;10.85;;;;;;;;;;5051595;28;20349;-79
2023/07/14 07:38:47;;;;;;;11.18;10.10;;;;;;;;;;5040501;28;20500;-79
2023/07/14 07:41:14;;;;;;;12.50;10.32;;;;;;;;;;5001990;28;20230;-78
2023/07/14 07:43:40;;;;;;;13.13;11.32;;;;;;;;;;5031276;28;20216;-79
2023/07/14 07:46:05;;;;;;;19.33;10.50;;;;;;;;;;5036739;28;20270;-79
2023/07/14 07:48:31;;;;;;;13.38;9.50;;;;;;;;;;5036756;28;20219;-80
2023/07/14 07:50:57;;;;;;;12.52;10.27;;;;;;;;;;5038470;28;20707;-80
2023/07/14 07:53:22;;;;;;;10.80;9.20;;;;;;;;;;5012289;28;20227;-79
2023/07/14 07:55:57;;;;;;;10.60;9.50;;;;;;;;;;5055722;28;20235;-79
2023/07/14 07:58:25;;;;;;;14.43;9.73;;;;;;;;;;5036387;28;20702;-79
2023/07/14 08:00:57;;;;;;;9.65;8.75;;;;;;;;;;5026813;28;20218;-79
2023/07/14 08:03:22;;;;;;;10.02;8.98;;;;;;;;;;5017879;28;20235;-81
2023/07/14 08:05:48;;;;;;;10.82;9.75;;;;;;;;;;5021639;28;20214;-79
2023/07/14 08:08:14;;;;;;;14.32;8.65;;;;;;;;;;5008699;28;20310;-80
2023/07/14 08:10:42;;;;;;;9.50;8.10;;;;;;;;;;5026254;28;20225;-80
2023/07/14 08:13:09;;;;;;;10.27;7.38;;;;;;;;;;5028982;28;20215;-81
2023/07/14 08:15:37;;;;;;;9.15;7.55;;;;;;;;;;5039473;28;20227;-79
2023/07/14 08:18:07;;;;;;;8.18;6.78;;;;;;;;;;5041953;28;20306;-79
2023/07/14 08:20:34;;;;;;;8.20;7.07;;;;;;;;;;5062659;28;20230;-80
2023/07/14 08:23:10;;;;;;;9.55;6.95;;;;;;;;;;5046955;28;20228;-80
2023/07/14 08:25:37;;;;;;;8.65;7.03;;;;;;;;;;5047724;28;20236;-81
2023/07/14 08:28:04;;;;;;;9.23;6.72;;;;;;;;;;5005587;28;20219;-79
2023/07/14 08:30:30;;;;;;;8.25;6.95;;;;;;;;;;5039797;28;20211;-79
2023/07/14 08:33:00;;;;;;;8.18;5.70;;;;;;;;;;5010977;28;20264;-80
2023/07/14 08:35:26;;;;;;;7.00;6.22;;;;;;;;;;5027833;28;20628;-81
2023/07/14 08:37:52;;;;;;;6.72;6.03;;;;;;;;;;5034411;28;20215;-80
2023/07/14 08:40:24;;;;;;;9.57;6.13;;;;;;;;;;5035540;28;20228;-79
2023/07/14 08:43:05;;;;;;;7.05;5.82;;;;;;;;;;4999975;28;20224;-81
2023/07/14 08:45:38;;;;;;;7.68;6.25;;;;;;;;;;5048412;28;20259;-80
2023/07/14 08:48:15;;;;;;;6.82;6.05;;;;;;;;;;5040630;28;20308;-79
2023/07/14 08:50:43;;;;;;;5.85;5.35;;;;;;;;;;5034549;28;20211;-80
2023/07/14 08:53:21;;;;;;;6.00;5.40;;;;;;;;;;5022037;28;20580;-81
2023/07/14 08:55:49;;;;;;;6.28;4.93;;;;;;;;;;5038290;28;20227;-78
2023/07/14 08:58:18;;;;;;;7.68;4.28;;;;;;;;;;5038826;28;20232;-79
2023/07/14 09:00:53;;;;;;;6.03;4.75;;;;;;;;;;5021815;28;20225;-79
2023/07/14 09:03:44;;;;;;;8.38;4.32;;;;;;;;;;5033558;28;21035;-78
2023/07/14 09:06:13;;;;;;;7.65;4.57;;;;;;;;;;5033790;28;20641;-79
2023/07/14 09:08:39;;;;;;;6.95;4.50;;;;;;;;;;5051137;28;20223;-80
2023/07/14 09:11:26;;;;;;;4.53;4.03;;;;;;;;;;5034906;28;20301;-80
2023/07/14 09:14:16;;;;;;;4.82;4.15;;;;;;;;;;5031205;28;20264;-81
2023/07/14 09:17:15;;;;;;;6.45;3.88;;;;;;;;;;5036226;28;20313;-81
2023/07/14 09:19:43;;;;;;;7.20;3.25;;;;;;;;;;5033253;28;20230;-79
2023/07/14 09:22:24;;;;;;;5.05;3.70;;;;;;;;;;5037662;28;20734;-81
2023/07/14 09:25:04;;;;;;;7.47;3.85;;;;;;;;;;5017109;28;20216;-80
2023/07/14 09:27:32;;;;;;;7.32;3.78;;;;;;;;;;5037745;28;20230;-82
2023/07/14 09:30:00;;;;;;;4.13;3.50;;;;;;;;;;5024925;28;20228;-82
2023/07/14 09:32:37;;;;;;;3.88;3.13;;;;;;;;;;5029655;28;20215;-77
2023/07/14 09:35:29;;;;;;;3.92;3.10;;;;;;;;;;5037009;28;20219;-78
2023/07/14 09:38:04;;;;;;;4.93;3.45;;;;;;;;;;5005718;28;20242;-78
2023/07/14 09:40:41;;;;;;;4.93;3.63;;;;;;;;;;5038104;28;20246;-77
2023/07/14 09:43:10;;;;;;;3.60;3.00;;;;;;;;;;4991925;28;20791;-75
2023/07/14 09:45:37;;;;;;;5.78;2.97;;;;;;;;;;5034721;28;20676;-77
2023/07/14 09:48:08;;;;;;;4.78;2.97;;;;;;;;;;5033034;28;20302;-78
2023/07/14 09:50:37;;;;;;;5.60;2.97;;;;;;;;;;5001737;28;20232;-77
2023/07/14 09:53:07;;;;;;;5.05;2.83;;;;;;;;;;5030164;28;20231;-79
2023/07/14 09:56:12;;;;;;;5.80;3.10;;;;;;;;;;4991089;28;20227;-76
2023/07/14 09:58:40;;;;;;;5.32;2.70;;;;;;;;;;5031245;28;21210;-77
2023/07/14 10:01:13;;;;;;;7.28;2.65;;;;;;;;;;5028646;28;20223;-77
2023/07/14 10:03:54;;;;;;;4.22;2.58;;;;;;;;;;5003586;28;20211;-79
2023/07/14 10:06:21;;;;;;;5.00;2.55;;;;;;;;;;5038073;28;20717;-78
2023/07/14 10:08:52;;;;;;;3.58;2.72;;;;;;;;;;4991003;28;20224;-77
2023/07/14 10:11:19;;;;;;;4.25;2.45;;;;;;;;;;5028655;28;20227;-78
2023/07/14 10:14:05;;;;;;;5.65;2.50;;;;;;;;;;5022824;28;20852;-77
2023/07/14 10:16:40;;;;;;;3.45;2.33;;;;;;;;;;5038032;28;20246;-77
2023/07/14 10:19:13;;;;;;;2.60;2.40;;;;;;;;;;5003349;28;20223;-77
2023/07/14 10:21:48;;;;;;;2.58;2.20;;;;;;;;;;5037888;28;20243;-78
2023/07/14 10:24:19;;;;;;;3.72;2.50;;;;;;;;;;5011588;28;20859;-77
2023/07/14 10:26:57;;;;;;;2.50;2.05;;;;;;;;;;5005405;28;20215;-77
2023/07/14 10:29:25;;;;;;;3.63;2.60;;;;;;;;;;5022952;28;21247;-78
2023/07/14 10:32:01;;;;;;;2.83;2.50;;;;;;;;;;5017707;28;20211;-79
2023/07/14 10:34:38;;;;;;;6.32;2.80;;;;;;;;;;5016018;28;22796;-79
2023/07/14 10:37:11;;;;;;;3.83;3.28;;;;;;;;;;5023529;28;20224;-76
2023/07/14 10:39:42;;;;;;;3.80;3.40;;;;;;;;;;5030237;28;20223;-79
2023/07/14 10:42:16;;;;;;;4.82;3.30;;;;;;;;;;5013575;28;20723;-79
2023/07/14 10:44:42;;;;;;;4.80;3.42;;;;;;;;;;5026876;28;20219;-79
2023/07/14 10:47:17;;;;;;;4.95;3.92;;;;;;;;;;4999247;28;20594;-80
2023/07/14 10:49:45;;;;;;;4.60;4.13;;;;;;;;;;5005411;28;20268;-79
2023/07/14 10:52:17;;;;;;;4.65;3.85;;;;;;;;;;5006711;28;20226;-78
2023/07/14 10:54:49;;;;;;;4.20;3.75;;;;;;;;;;5029933;28;20216;-77
2023/07/14 10:57:35;;;;;;;6.78;4.28;;;;;;;;;;5012632;28;20236;-78
2023/07/14 11:00:19;;;;;;;4.20;3.35;;;;;;;;;;4990951;28;20768;-77
2023/07/14 11:02:49;;;;;;;4.72;2.65;;;;;;;;;;5004002;28;20216;-78
2023/07/14 11:05:18;;;;;;;3.55;2.35;;;;;;;;;;4974927;28;20220;-77
2023/07/14 11:07:44;;;;;;;3.95;3.00;;;;;;;;;;5012136;28;20254;-80
2023/07/14 11:10:30;;;;;;;3.30;3.00;;;;;;;;;;5021373;28;20685;-79
2023/07/14 11:13:04;;;;;;;5.07;3.05;;;;;;;;;;5015907;28;20881;-78
2023/07/14 11:15:42;;;;;;;3.55;2.95;;;;;;;;;;5013337;28;20215;-80
2023/07/14 11:18:20;;;;;;;4.00;3.00;;;;;;;;;;5031517;28;20732;-79
2023/07/14 11:20:55;;;;;;;3.15;2.60;;;;;;;;;;5022766;28;20242;-77
2023/07/14 11:23:41;;;;;;;3.58;2.85;;;;;;;;;;5034238;28;20278;-79
2023/07/14 11:26:23;;;;;;;3.97;2.53;;;;;;;;;;5022566;28;20212;-77
2023/07/14 11:28:59;;;;;;;4.20;2.90;;;;;;;;;;5024004;28;20288;-76
2023/07/14 11:31:29;;;;;;;4.97;2.60;;;;;;;;;;4997340;28;20222;-77
2023/07/14 11:34:06;;;;;;;4.13;2.38;;;;;;;;;;5021888;28;20211;-79
2023/07/14 11:36:52;;;;;;;2.75;2.15;;;;;;;;;;5028519;28;20231;-79
2023/07/14 11:39:29;;;;;;;3.08;2.35;;;;;;;;;;5041179;28;20733;-79
2023/07/14 11:41:55;;;;;;;3.35;2.20;;;;;;;;;;5020476;28;20215;-79
2023/07/14 11:44:21;;;;;;;2.75;2.05;;;;;;;;;;5009600;28;20228;-79
2023/07/14 11:46:54;;;;;;;3.13;2.10;;;;;;;;;;5028617;28;20223;-79
2023/07/14 11:49:32;;;;;;;2.28;2.08;;;;;;;;;;5017449;28;20232;-79
2023/07/14 11:52:00;;;;;;;3.22;1.90;;;;;;;;;;5014858;28;20229;-79
2023/07/14 11:54:41;;;;;;;2.95;2.13;;;;;;;;;;5013401;28;20276;-79
2023/07/14 11:57:07;;;;;;;2.72;1.85;;;;;;;;;;5007769;28;20227;-78
2023/07/14 12:00:12;;;;;;;2.67;2.00;;;;;;;;;;5032292;28;20699;-80
2023/07/14 12:02:47;;;;;;;7.72;2.28;;;;;;;;;;5026866;28;20298;-77
2023/07/14 12:05:15;;;;;;;3.70;2.20;;;;;;;;;;5027339;28;20228;-79
2023/07/14 12:08:05;;;;;;;2.97;1.98;;;;;;;;;;5013100;28;20261;-78
2023/07/14 12:10:46;;;;;;;3.05;1.98;;;;;;;;;;5040242;28;20238;-79
2023/07/14 12:13:24;;;;;;;6.05;2.40;;;;;;;;;;5039398;28;20224;-79
2023/07/14 12:15:56;;;;;;;3.00;1.95;;;;;;;;;;5013776;28;20323;-80
2023/07/14 12:18:56;;;;;;;2.22;2.03;;;;;;;;;;5020397;28;20292;-79
2023/07/14 12:21:42;;;;;;;2.28;1.98;;;;;;;;;;5029812;28;20242;-79
2023/07/14 12:24:17;;;;;;;3.45;2.08;;;;;;;;;;5028600;28;20227;-79
2023/07/14 12:26:42;;;;;;;2.47;1.95;;;;;;;;;;5027985;28;20212;-79
2023/07/14 12:29:16;;;;;;;5.53;2.40;;;;;;;;;;5030029;28;20762;-79
2023/07/14 12:31:46;;;;;;;3.55;1.88;;;;;;;;;;5039199;28;20230;-78
2023/07/14 12:34:19;;;;;;;3.70;1.85;;;;;;;;;;5042325;28;20223;-81
2023/07/14 12:36:45;;;;;;;3.22;2.03;;;;;;;;;;5005216;28;20224;-79
2023/07/14 12:39:10;;;;;;;4.43;2.20;;;;;;;;;;5005727;28;20215;-81
2023/07/14 12:41:42;;;;;;;2.72;2.30;;;;;;;;;;5025998;28;20231;-80
2023/07/14 12:44:21;;;;;;;2.85;1.90;;;;;;;;;;5011017;28;20212;-80
2023/07/14 12:46:47;;;;;;;5.90;2.42;;;;;;;;;;5021433;28;20232;-80
2023/07/14 12:49:36;;;;;;;2.47;2.00;;;;;;;;;;5012576;28;20247;-80
2023/07/14 12:52:13;;;;;;;3.65;2.20;;;;;;;;;;5048651;28;20322;-81
2023/07/14 12:54:47;;;;;;;2.15;1.95;;;;;;;;;;5015001;28;20253;-79
2023/07/14 12:57:18;;;;;;;2.20;2.00;;;;;;;;;;5020553;28;20250;-81
2023/07/14 12:59:49;;;;;;;3.58;2.30;;;;;;;;;;5045123;28;20224;-82
2023/07/14 13:02:15;;;;;;;3.72;2.03;;;;;;;;;;5038104;28;20219;-80
2023/07/14 13:04:41;;;;;;;2.92;1.98;;;;;;;;;;5038194;28;20696;-81
2023/07/14 13:07:29;;;;;;;3.15;2.20;;;;;;;;;;5026141;28;20216;-80
2023/07/14 13:10:06;;;;;;;3.10;2.10;;;;;;;;;;5029043;28;20250;-79
2023/07/14 13:12:32;;;;;;;2.30;1.90;;;;;;;;;;5021703;28;20258;-80
2023/07/14 13:14:58;;;;;;;2.60;2.05;;;;;;;;;;5033058;28;20224;-78
2023/07/14 13:17:24;;;;;;;2.92;2.33;;;;;;;;;;5018990;28;20220;-80
2023/07/14 13:19:50;;;;;;;3.20;2.08;;;;;;;;;;5035015;28;20211;-78
2023/07/14 13:22:25;;;;;;;2.50;2.00;;;;;;;;;;5021367;28;20724;-81
2023/07/14 13:25:18;;;;;;;3.25;2.30;;;;;;;;;;5034695;28;20224;-80
2023/07/14 13:27:44;;;;;;;3.83;2.00;;;;;;;;;;5016719;28;20234;-80
2023/07/14 13:30:19;;;;;;;2.95;2.00;;;;;;;;;;5034585;28;20208;-80
2023/07/14 13:32:51;;;;;;;2.35;2.15;;;;;;;;;;5026805;28;20236;-80
2023/07/14 13:35:28;;;;;;;2.65;1.98;;;;;;;;;;5023926;28;20231;-80
2023/07/14 13:38:02;;;;;;;2.38;2.13;;;;;;;;;;5029452;28;20597;-81
2023/07/14 13:40:39;;;;;;;2.20;2.00;;;;;;;;;;5031086;28;20219;-81
2023/07/14 13:43:16;;;;;;;2.25;2.03;;;;;;;;;;5038471;28;20242;-79
2023/07/14 13:45:44;;;;;;;2.85;1.92;;;;;;;;;;5010356;28;20295;-80
2023/07/14 13:48:40;;;;;;;2.25;2.05;;;;;;;;;;5005266;28;20224;-81
2023/07/14 13:51:20;;;;;;;3.40;2.00;;;;;;;;;;5029590;28;20225;-80
2023/07/14 13:53:50;;;;;;;5.30;2.75;;;;;;;;;;5025108;28;20216;-81
2023/07/14 13:56:20;;;;;;;4.45;2.28;;;;;;;;;;5016360;28;20224;-79
2023/07/14 13:58:46;;;;;;;3.75;2.45;;;;;;;;;;5014824;28;20250;-80
2023/07/14 14:01:12;;;;;;;2.58;2.38;;;;;;;;;;5021640;28;20251;-79
2023/07/14 14:03:40;;;;;;;5.05;2.13;;;;;;;;;;5022977;28;20306;-81
2023/07/14 14:06:10;;;;;;;2.67;1.98;;;;;;;;;;5028041;28;20246;-79
2023/07/14 14:08:38;;;;;;;2.33;1.95;;;;;;;;;;5034370;28;20246;-78
2023/07/14 14:11:06;;;;;;;5.30;2.17;;;;;;;;;;5033313;28;20211;-78
2023/07/14 14:13:32;;;;;;;2.40;2.00;;;;;;;;;;5023370;28;20697;-81
2023/07/14 14:15:57;;;;;;;2.35;2.10;;;;;;;;;;5018325;28;20247;-80
2023/07/14 14:18:24;;;;;;;3.08;2.20;;;;;;;;;;5010638;28;20265;-79
2023/07/14 14:20:51;;;;;;;3.83;2.38;;;;;;;;;;5009047;28;20235;-81
2023/07/14 14:23:19;;;;;;;4.50;2.10;;;;;;;;;;5026759;28;20859;-80
2023/07/14 14:25:48;;;;;;;4.32;2.50;;;;;;;;;;5060710;28;20224;-80
2023/07/14 14:28:13;;;;;;;2.88;2.60;;;;;;;;;;5005639;28;20240;-79
2023/07/14 14:30:46;;;;;;;3.80;2.72;;;;;;;;;;5008005;28;20223;-80
2023/07/14 14:33:21;;;;;;;2.75;2.38;;;;;;;;;;5007521;28;20246;-80
2023/07/14 14:35:49;;;;;;;4.20;2.78;;;;;;;;;;5024404;28;20227;-81
2023/07/14 14:38:27;;;;;;;3.05;2.40;;;;;;;;;;5017578;28;20637;-81
2023/07/14 14:40:58;;;;;;;4.85;2.10;;;;;;;;;;5010278;28;20231;-80
2023/07/14 14:43:30;;;;;;;2.75;2.20;;;;;;;;;;5021825;28;20222;-81
2023/07/14 14:45:58;;;;;;;4.85;2.78;;;;;;;;;;5020172;28;20302;-80
2023/07/14 14:48:25;;;;;;;4.90;2.67;;;;;;;;;;5018674;28;20251;-81
2023/07/14 14:50:51;;;;;;;3.67;2.45;;;;;;;;;;5008344;28;20234;-80
2023/07/14 14:53:22;;;;;;;4.55;2.55;;;;;;;;;;5059626;28;20243;-80
2023/07/14 14:55:57;;;;;;;2.80;2.33;;;;;;;;;;5001311;28;20216;-80
2023/07/14 14:58:24;;;;;;;2.58;2.35;;;;;;;;;;5034347;28;20235;-81
2023/07/14 15:01:19;;;;;;;4.57;2.08;;;;;;;;;;5022522;28;20220;-80